Time;durP1;ratioP1;P1;durP2;ratioP2;P2;SDS_P1;SDS_P2;PMS_P1;PMS_P2;Temp;Humidity;BMP_temperature;BMP_pressure;BME280_temperature;BME280_humidity;BME280_pressure;Samples;Min_cycle;Max_cycle;Signal;HPM_P1;HPM_P2
2021/07/13 00:00:42;;;;;;;14.10;11.97;;;20.40;99.90;;;;;;5057101;28;20188;-84
2021/07/13 00:03:09;;;;;;;16.30;12.27;;;20.30;99.90;;;;;;5054603;28;20194;-85
2021/07/13 00:05:36;;;;;;;14.73;12.07;;;20.20;99.90;;;;;;5070238;28;20194;-85
2021/07/13 00:08:03;;;;;;;15.70;12.17;;;20.30;99.90;;;;;;5059596;28;20207;-84
2021/07/13 00:10:30;;;;;;;14.53;12.70;;;20.20;99.90;;;;;;5063215;28;20184;-85
2021/07/13 00:12:57;;;;;;;16.60;13.73;;;20.30;99.90;;;;;;5063170;28;20205;-85
2021/07/13 00:15:26;;;;;;;19.33;13.97;;;20.30;99.90;;;;;;5065616;28;20168;-85
2021/07/13 00:17:54;;;;;;;18.37;14.97;;;20.40;99.90;;;;;;5054729;28;20234;-85
2021/07/13 00:20:21;;;;;;;17.43;13.80;;;20.30;99.90;;;;;;5069767;28;20259;-85
2021/07/13 00:22:47;;;;;;;17.47;14.43;;;20.20;99.90;;;;;;5062905;28;20172;-85
2021/07/13 00:25:15;;;;;;;18.33;14.63;;;20.10;99.90;;;;;;5064983;28;20258;-84
2021/07/13 00:27:42;;;;;;;18.57;15.10;;;20.00;99.90;;;;;;5056940;28;20230;-85
2021/07/13 00:30:11;;;;;;;20.57;14.40;;;20.00;99.90;;;;;;5071453;28;20265;-85
2021/07/13 00:32:37;;;;;;;18.53;14.60;;;19.90;99.90;;;;;;5066727;28;20174;-86
2021/07/13 00:35:03;;;;;;;16.03;13.17;;;19.80;99.90;;;;;;5071858;28;20299;-84
2021/07/13 00:37:29;;;;;;;18.47;15.07;;;19.80;99.90;;;;;;5067560;28;20269;-84
2021/07/13 00:39:55;;;;;;;19.63;15.07;;;19.80;99.90;;;;;;5066141;28;20213;-85
2021/07/13 00:42:21;;;;;;;23.87;16.67;;;19.80;99.90;;;;;;5058421;28;20198;-84
2021/07/13 00:44:47;;;;;;;23.40;17.63;;;19.80;99.90;;;;;;5062493;28;20213;-85
2021/07/13 00:47:17;;;;;;;19.47;15.33;;;20.10;99.90;;;;;;5068192;28;20213;-85
2021/07/13 00:49:45;;;;;;;22.07;16.23;;;20.10;99.90;;;;;;5062067;28;20173;-85
2021/07/13 00:52:11;;;;;;;20.30;15.60;;;20.00;99.90;;;;;;5063773;28;20190;-85
2021/07/13 00:54:39;;;;;;;22.47;15.97;;;20.00;99.90;;;;;;5058653;28;20220;-84
2021/07/13 00:57:07;;;;;;;21.87;16.60;;;19.90;99.90;;;;;;5065301;28;20332;-84
2021/07/13 00:59:33;;;;;;;21.23;16.57;;;19.80;99.90;;;;;;5071247;28;20184;-85
2021/07/13 01:01:58;;;;;;;23.30;15.93;;;19.80;99.90;;;;;;5064811;28;20174;-85
2021/07/13 01:04:24;;;;;;;20.53;16.37;;;19.80;99.90;;;;;;5067959;28;20185;-85
2021/07/13 01:07:00;;;;;;;21.03;16.60;;;19.80;99.90;;;;;;5071109;28;20217;-84
2021/07/13 01:09:46;;;;;;;21.47;16.30;;;19.80;99.90;;;;;;5064884;28;20222;-85
2021/07/13 01:12:30;;;;;;;22.33;17.20;;;19.80;99.90;;;;;;5056718;28;20221;-86
2021/07/13 01:15:00;;;;;;;21.67;15.87;;;19.70;99.90;;;;;;5059765;28;20596;-86
2021/07/13 01:17:35;;;;;;;23.23;16.63;;;19.60;99.90;;;;;;5066852;28;20178;-86
2021/07/13 01:20:03;;;;;;;19.03;15.13;;;19.60;99.90;;;;;;5055946;28;20526;-85
2021/07/13 01:22:43;;;;;;;21.23;16.87;;;19.60;99.90;;;;;;5061213;28;20186;-85
2021/07/13 01:25:22;;;;;;;20.63;15.13;;;19.50;99.90;;;;;;5061093;28;20177;-87
2021/07/13 01:27:48;;;;;;;21.17;15.63;;;19.50;99.90;;;;;;5062014;28;20369;-85
2021/07/13 01:30:21;;;;;;;24.47;18.07;;;19.50;99.90;;;;;;5059700;28;20684;-85
2021/07/13 01:32:55;;;;;;;22.47;17.20;;;19.50;99.90;;;;;;5062481;28;20177;-85
2021/07/13 01:35:31;;;;;;;21.13;16.80;;;19.60;99.90;;;;;;5061703;28;20212;-86
2021/07/13 01:38:01;;;;;;;21.90;16.20;;;19.60;99.90;;;;;;5066012;28;20177;-85
2021/07/13 01:40:28;;;;;;;20.70;16.20;;;19.60;99.90;;;;;;5062706;28;20243;-85
2021/07/13 01:42:55;;;;;;;21.37;16.63;;;19.50;99.90;;;;;;5068310;28;20193;-85
2021/07/13 01:45:21;;;;;;;23.80;16.87;;;19.50;99.90;;;;;;5056692;28;20186;-86
2021/07/13 01:47:47;;;;;;;21.73;16.70;;;19.40;99.90;;;;;;5070109;28;20207;-86
2021/07/13 01:50:14;;;;;;;22.03;17.03;;;19.40;99.90;;;;;;5064803;28;20650;-85
2021/07/13 01:52:40;;;;;;;22.27;16.17;;;19.40;99.90;;;;;;5054793;28;20667;-89
2021/07/13 01:55:07;;;;;;;23.43;16.90;;;19.40;99.90;;;;;;5061366;28;20173;-85
2021/07/13 01:57:36;;;;;;;21.47;16.60;;;19.30;99.90;;;;;;5053892;28;20268;-85
2021/07/13 02:00:10;;;;;;;26.10;17.63;;;19.30;99.90;;;;;;5055453;28;20182;-85
2021/07/13 02:02:38;;;;;;;25.47;18.30;;;19.40;99.90;;;;;;5071069;28;20190;-86
2021/07/13 02:05:05;;;;;;;25.23;18.10;;;19.50;99.90;;;;;;5063814;28;20204;-88
2021/07/13 02:07:35;;;;;;;22.10;17.70;;;19.40;99.90;;;;;;5059994;28;20204;-86
2021/07/13 02:10:03;;;;;;;24.93;17.50;;;19.50;99.90;;;;;;5068346;28;20175;-86
2021/07/13 02:12:28;;;;;;;24.57;18.03;;;19.60;99.90;;;;;;5064770;28;20179;-86
2021/07/13 02:14:57;;;;;;;25.03;18.13;;;19.70;99.90;;;;;;5063822;28;20168;-85
2021/07/13 02:17:25;;;;;;;26.90;19.97;;;19.50;99.90;;;;;;5069611;28;20201;-85
2021/07/13 02:19:50;;;;;;;23.63;18.23;;;19.40;99.90;;;;;;5060303;28;20222;-85
2021/07/13 02:22:16;;;;;;;28.83;21.60;;;19.30;99.90;;;;;;5054690;28;20174;-86
2021/07/13 02:24:42;;;;;;;24.77;19.13;;;19.70;99.90;;;;;;5057364;28;20176;-89
2021/07/13 02:27:17;;;;;;;25.77;18.60;;;19.70;99.90;;;;;;5069864;28;20204;-89
2021/07/13 02:30:07;;;;;;;26.53;18.67;;;19.60;99.90;;;;;;5066843;28;20173;-85
2021/07/13 02:33:11;;;;;;;22.97;17.50;;;19.50;99.90;;;;;;5057751;28;20173;-87
2021/07/13 02:35:43;;;;;;;23.60;18.57;;;19.40;99.90;;;;;;5060604;28;20168;-88
2021/07/13 02:38:10;;;;;;;25.07;18.67;;;19.30;99.90;;;;;;5062429;28;20281;-87
2021/07/13 02:40:37;;;;;;;26.90;19.97;;;19.80;99.90;;;;;;5055364;28;20227;-87
2021/07/13 02:43:03;;;;;;;27.30;19.47;;;20.00;99.90;;;;;;5065841;28;20173;-86
2021/07/13 02:45:29;;;;;;;26.40;19.43;;;19.80;99.90;;;;;;5066049;28;20228;-88
2021/07/13 02:47:57;;;;;;;25.37;19.17;;;19.60;99.90;;;;;;5057255;28;20199;-88
2021/07/13 02:50:25;;;;;;;24.13;17.80;;;19.40;99.90;;;;;;5065477;28;20292;-86
2021/07/13 02:52:53;;;;;;;26.33;19.90;;;19.30;99.90;;;;;;5068463;28;20179;-89
2021/07/13 02:55:21;;;;;;;27.27;20.13;;;19.50;99.90;;;;;;5065783;28;20191;-85
2021/07/13 02:57:49;;;;;;;27.90;19.33;;;19.50;99.90;;;;;;5072525;28;20201;-87
2021/07/13 03:00:19;;;;;;;27.50;20.07;;;19.50;99.90;;;;;;5062460;28;20179;-89
2021/07/13 03:02:48;;;;;;;23.23;17.30;;;19.40;99.90;;;;;;5069006;28;20185;-86
2021/07/13 03:05:16;;;;;;;25.00;18.20;;;19.30;99.90;;;;;;5064641;28;20330;-88
2021/07/13 03:07:42;;;;;;;25.10;18.43;;;19.20;99.90;;;;;;5073417;28;20213;-87
2021/07/13 03:10:10;;;;;;;26.63;17.50;;;19.10;99.90;;;;;;5068668;28;20171;-86
2021/07/13 03:12:36;;;;;;;23.13;18.10;;;19.10;99.90;;;;;;5065432;28;20190;-85
2021/07/13 03:15:05;;;;;;;24.50;17.13;;;19.20;99.90;;;;;;5068255;28;20177;-85
2021/07/13 03:17:31;;;;;;;24.40;17.80;;;19.20;99.90;;;;;;5070872;28;20179;-86
2021/07/13 03:19:56;;;;;;;23.13;18.10;;;19.20;99.90;;;;;;5075811;28;20546;-86
2021/07/13 03:22:36;;;;;;;25.17;18.77;;;19.20;99.90;;;;;;5063288;28;20715;-85
2021/07/13 03:25:03;;;;;;;24.37;17.37;;;19.20;99.90;;;;;;5058948;28;20529;-85
2021/07/13 03:27:31;;;;;;;25.03;16.93;;;19.10;99.90;;;;;;5061794;28;20207;-85
2021/07/13 03:29:58;;;;;;;25.13;17.10;;;19.00;99.90;;;;;;5064337;28;20174;-86
2021/07/13 03:32:25;;;;;;;25.47;17.23;;;19.00;99.90;;;;;;5063185;28;20175;-85
2021/07/13 03:34:52;;;;;;;21.97;17.40;;;19.00;99.90;;;;;;5056611;28;20164;-85
2021/07/13 03:37:19;;;;;;;23.80;18.03;;;19.00;99.90;;;;;;5064048;28;20635;-87
2021/07/13 03:39:45;;;;;;;22.93;18.13;;;19.00;99.90;;;;;;5057506;28;20226;-86
2021/07/13 03:42:12;;;;;;;23.27;17.33;;;19.00;99.90;;;;;;5058325;28;20176;-87
2021/07/13 03:44:40;;;;;;;20.87;17.27;;;19.20;99.90;;;;;;5070090;28;20192;-86
2021/07/13 03:47:13;;;;;;;25.83;20.37;;;19.10;99.90;;;;;;5056696;28;20213;-84
2021/07/13 03:49:39;;;;;;;33.90;23.70;;;19.30;99.90;;;;;;5067135;28;20160;-85
2021/07/13 03:52:06;;;;;;;31.63;22.97;;;19.50;99.90;;;;;;5061340;28;20168;-85
2021/07/13 03:54:32;;;;;;;29.80;21.87;;;19.60;99.90;;;;;;5063167;28;20164;-83
2021/07/13 03:56:59;;;;;;;29.97;22.20;;;19.60;99.90;;;;;;5063680;28;20172;-85
2021/07/13 03:59:25;;;;;;;31.40;24.20;;;19.80;99.90;;;;;;5059828;28;20170;-85
2021/07/13 04:01:51;;;;;;;30.70;22.90;;;20.20;99.90;;;;;;5063594;28;20174;-85
2021/07/13 04:04:17;;;;;;;35.63;24.87;;;20.20;99.90;;;;;;5073194;28;20196;-85
2021/07/13 04:06:42;;;;;;;40.47;28.70;;;20.00;99.90;;;;;;5067325;28;20234;-85
2021/07/13 04:09:09;;;;;;;41.13;29.00;;;19.90;99.90;;;;;;5060634;28;20264;-85
2021/07/13 04:11:35;;;;;;;31.97;23.50;;;20.10;99.90;;;;;;5066207;28;20164;-86
2021/07/13 04:14:02;;;;;;;53.87;34.13;;;20.20;99.90;;;;;;5056501;28;20202;-85
2021/07/13 04:16:31;;;;;;;66.20;38.33;;;20.30;99.90;;;;;;5058089;28;20693;-84
2021/07/13 04:18:58;;;;;;;68.93;39.83;;;20.30;99.90;;;;;;5066992;28;20199;-85
2021/07/13 04:21:24;;;;;;;69.60;40.37;;;20.20;99.90;;;;;;5067646;28;20170;-86
2021/07/13 04:23:50;;;;;;;84.93;44.17;;;20.20;99.90;;;;;;5065642;28;20623;-84
2021/07/13 04:26:16;;;;;;;80.23;42.63;;;20.10;99.90;;;;;;5063934;28;20269;-84
2021/07/13 04:28:42;;;;;;;76.50;41.53;;;20.20;99.90;;;;;;5060955;28;20299;-85
2021/07/13 04:31:07;;;;;;;81.53;43.40;;;20.20;99.90;;;;;;5064998;28;20182;-84
2021/07/13 04:33:33;;;;;;;91.77;45.73;;;20.20;99.90;;;;;;5063525;28;20261;-85
2021/07/13 04:35:59;;;;;;;88.57;46.60;;;20.20;99.90;;;;;;5060986;28;20165;-84
2021/07/13 04:38:26;;;;;;;93.40;47.67;;;20.10;99.90;;;;;;5064786;28;20203;-85
2021/07/13 04:40:52;;;;;;;89.33;45.47;;;20.10;99.90;;;;;;5054484;28;20181;-84
2021/07/13 04:43:19;;;;;;;90.03;47.37;;;20.00;99.90;;;;;;5067743;28;20175;-85
2021/07/13 04:45:44;;;;;;;82.67;44.33;;;20.00;99.90;;;;;;5062788;28;20171;-85
2021/07/13 04:48:11;;;;;;;85.47;45.10;;;20.00;99.90;;;;;;5062655;28;20668;-85
2021/07/13 04:50:37;;;;;;;87.63;45.63;;;19.90;99.90;;;;;;5063230;28;20178;-85
2021/07/13 04:53:03;;;;;;;75.63;42.07;;;19.80;99.90;;;;;;5062906;28;20183;-87
2021/07/13 04:55:29;;;;;;;86.30;42.67;;;19.70;99.90;;;;;;5063639;28;20250;-84
2021/07/13 04:57:55;;;;;;;74.90;43.57;;;19.70;99.90;;;;;;5064587;28;20266;-85
2021/07/13 05:00:20;;;;;;;74.03;41.30;;;19.70;99.90;;;;;;5055781;28;20176;-86
2021/07/13 05:02:46;;;;;;;71.00;41.40;;;19.70;99.90;;;;;;5064586;28;20210;-84
2021/07/13 05:05:14;;;;;;;73.90;41.23;;;19.90;99.90;;;;;;5058658;28;20630;-84
2021/07/13 05:07:48;;;;;;;76.93;41.67;;;20.00;99.90;;;;;;5069275;28;20406;-84
2021/07/13 05:10:15;;;;;;;76.10;41.87;;;20.00;99.90;;;;;;5064789;28;20178;-85
2021/07/13 05:12:41;;;;;;;73.43;40.30;;;20.00;99.90;;;;;;5068505;28;20253;-85
2021/07/13 05:15:09;;;;;;;78.13;42.03;;;20.00;99.90;;;;;;5067209;28;20234;-85
2021/07/13 05:17:38;;;;;;;74.87;42.17;;;20.20;99.90;;;;;;5065447;28;20691;-85
2021/07/13 05:20:10;;;;;;;72.47;41.27;;;20.30;99.90;;;;;;5065744;28;20173;-83
2021/07/13 05:22:36;;;;;;;80.07;43.63;;;20.30;99.90;;;;;;5066512;28;20174;-85
2021/07/13 05:25:07;;;;;;;87.37;46.23;;;20.50;99.90;;;;;;5062456;28;20195;-85
2021/07/13 05:27:38;;;;;;;93.73;46.10;;;20.50;99.90;;;;;;5061345;28;20224;-84
2021/07/13 05:30:05;;;;;;;87.20;47.27;;;20.50;99.90;;;;;;5070813;28;20175;-85
2021/07/13 05:32:30;;;;;;;86.73;45.47;;;20.40;99.90;;;;;;5068418;28;20269;-84
2021/07/13 05:34:56;;;;;;;83.10;47.23;;;20.40;99.90;;;;;;5061264;28;20223;-85
2021/07/13 05:37:21;;;;;;;88.53;46.57;;;20.40;99.90;;;;;;5058118;28;20174;-84
2021/07/13 05:39:47;;;;;;;91.27;46.70;;;20.40;99.90;;;;;;5065798;28;20673;-86
2021/07/13 05:42:12;;;;;;;86.10;46.80;;;20.30;99.90;;;;;;5066603;28;20208;-87
2021/07/13 05:44:39;;;;;;;95.27;48.37;;;20.40;99.90;;;;;;5066380;28;20180;-84
2021/07/13 05:47:04;;;;;;;96.87;47.80;;;20.40;99.90;;;;;;5069162;28;20284;-84
2021/07/13 05:49:30;;;;;;;100.13;49.30;;;20.30;99.90;;;;;;5068489;28;20314;-85
2021/07/13 05:51:55;;;;;;;87.97;45.80;;;20.20;99.90;;;;;;5069544;28;20287;-85
2021/07/13 05:54:21;;;;;;;91.90;47.40;;;20.10;99.90;;;;;;5063405;28;20248;-84
2021/07/13 05:56:50;;;;;;;84.73;46.20;;;20.10;99.90;;;;;;5065603;28;20701;-84
2021/07/13 05:59:15;;;;;;;94.13;48.23;;;20.20;99.90;;;;;;5061877;28;20188;-82
2021/07/13 06:01:41;;;;;;;93.20;46.33;;;20.20;99.90;;;;;;5062561;28;20177;-89
2021/07/13 06:04:06;;;;;;;87.90;44.50;;;20.20;99.90;;;;;;5055967;28;20194;-84
2021/07/13 06:06:32;;;;;;;94.00;47.40;;;20.20;99.90;;;;;;5061128;28;20183;-84
2021/07/13 06:08:58;;;;;;;89.37;45.93;;;20.30;99.90;;;;;;5061658;28;20246;-84
2021/07/13 06:11:23;;;;;;;97.83;46.53;;;20.20;99.90;;;;;;5065808;28;20540;-85
2021/07/13 06:13:49;;;;;;;109.67;45.77;;;20.30;99.90;;;;;;5053964;28;20176;-85
2021/07/13 06:16:15;;;;;;;103.00;45.00;;;20.10;99.90;;;;;;5067052;28;20246;-84
2021/07/13 06:18:41;;;;;;;100.07;45.07;;;20.30;99.90;;;;;;5058818;28;20183;-86
2021/07/13 06:21:09;;;;;;;105.00;46.83;;;20.40;99.90;;;;;;5069490;28;20649;-87
2021/07/13 06:23:35;;;;;;;98.90;45.40;;;20.40;99.90;;;;;;5058940;28;20251;-89
2021/07/13 06:26:00;;;;;;;98.93;44.83;;;20.40;99.90;;;;;;5063466;28;20176;-88
2021/07/13 06:28:26;;;;;;;113.27;47.43;;;20.50;99.90;;;;;;5056893;28;20637;-87
2021/07/13 06:30:52;;;;;;;105.53;46.00;;;20.50;99.90;;;;;;5059103;28;20645;-85
2021/07/13 06:33:17;;;;;;;111.70;46.93;;;20.50;99.90;;;;;;5060854;28;20203;-82
2021/07/13 06:35:45;;;;;;;115.60;48.43;;;20.50;99.90;;;;;;5061303;28;20185;-80
2021/07/13 06:38:11;;;;;;;120.07;47.80;;;20.50;99.90;;;;;;5070008;28;20200;-79
2021/07/13 06:40:36;;;;;;;118.43;46.97;;;20.50;99.90;;;;;;5059351;28;20211;-80
2021/07/13 06:43:02;;;;;;;112.43;46.70;;;20.50;99.90;;;;;;5064252;28;20178;-79
2021/07/13 06:45:28;;;;;;;123.90;50.13;;;20.40;99.90;;;;;;5068695;28;20183;-79
2021/07/13 06:47:54;;;;;;;117.43;50.23;;;20.50;99.90;;;;;;5053284;28;20204;-79
2021/07/13 06:50:27;;;;;;;120.37;50.57;;;20.60;99.90;;;;;;5051459;28;20537;-79
2021/07/13 06:52:53;;;;;;;115.27;45.80;;;20.60;99.90;;;;;;5054467;28;20573;-80
2021/07/13 06:55:20;;;;;;;122.83;48.43;;;20.60;99.90;;;;;;5070582;28;20182;-79
2021/07/13 06:57:46;;;;;;;117.07;47.33;;;20.60;99.90;;;;;;5052764;28;20276;-80
2021/07/13 07:00:12;;;;;;;105.83;46.77;;;20.60;99.90;;;;;;5062330;28;20717;-80
2021/07/13 07:02:38;;;;;;;117.03;50.17;;;20.60;99.90;;;;;;5064378;28;20205;-80
2021/07/13 07:05:06;;;;;;;106.83;44.43;;;20.80;99.90;;;;;;5069298;28;20200;-80
2021/07/13 07:07:31;;;;;;;105.23;45.97;;;20.80;99.90;;;;;;5063298;28;20229;-79
2021/07/13 07:09:57;;;;;;;101.90;45.03;;;21.00;99.90;;;;;;5051373;28;20633;-80
2021/07/13 07:12:23;;;;;;;91.40;43.07;;;21.10;99.90;;;;;;5065512;28;20213;-79
2021/07/13 07:14:48;;;;;;;97.57;42.83;;;21.20;99.90;;;;;;5077916;28;20166;-80
2021/07/13 07:17:14;;;;;;;86.87;41.67;;;21.20;99.90;;;;;;5091237;28;20633;-80
2021/07/13 07:19:39;;;;;;;86.13;41.60;;;21.20;99.90;;;;;;5067946;28;20174;-79
2021/07/13 07:22:05;;;;;;;86.30;43.03;;;21.30;99.90;;;;;;5053255;28;20659;-80
2021/07/13 07:24:31;;;;;;;85.23;42.00;;;21.40;99.90;;;;;;5057980;28;20659;-84
2021/07/13 07:26:57;;;;;;;85.87;41.87;;;21.40;99.90;;;;;;5064226;28;20199;-79
2021/07/13 07:29:22;;;;;;;83.83;41.07;;;21.30;99.90;;;;;;5060176;28;20657;-80
2021/07/13 07:31:50;;;;;;;86.27;40.90;;;21.20;99.90;;;;;;5059827;28;20187;-80
2021/07/13 07:34:16;;;;;;;82.17;41.63;;;21.10;99.90;;;;;;5052865;28;20657;-80
2021/07/13 07:36:42;;;;;;;84.53;41.10;;;21.30;99.90;;;;;;5058598;28;20169;-80
2021/07/13 07:39:07;;;;;;;78.77;39.90;;;21.30;99.90;;;;;;5057888;28;20168;-79
2021/07/13 07:41:33;;;;;;;76.30;40.40;;;21.30;99.90;;;;;;5063225;28;20190;-79
2021/07/13 07:44:00;;;;;;;85.43;41.67;;;21.30;99.90;;;;;;5059726;28;20615;-79
2021/07/13 07:46:25;;;;;;;73.77;39.27;;;21.50;99.90;;;;;;5054704;28;20635;-80
2021/07/13 07:48:51;;;;;;;78.87;40.80;;;21.50;99.90;;;;;;5057901;28;20169;-80
2021/07/13 07:51:17;;;;;;;70.60;38.77;;;21.80;99.90;;;;;;5065182;28;20202;-81
2021/07/13 07:53:42;;;;;;;65.40;36.03;;;22.10;99.90;;;;;;5057798;28;20174;-80
2021/07/13 07:56:08;;;;;;;67.60;36.77;;;22.10;99.90;;;;;;5067762;28;20228;-80
2021/07/13 07:58:33;;;;;;;69.17;38.23;;;22.20;99.90;;;;;;5072342;28;20168;-79
2021/07/13 08:00:59;;;;;;;66.57;36.13;;;22.20;99.90;;;;;;5062659;28;20576;-79
2021/07/13 08:03:24;;;;;;;66.57;36.93;;;22.40;99.90;;;;;;5068798;28;20178;-79
2021/07/13 08:05:55;;;;;;;71.80;38.50;;;22.40;99.90;;;;;;5071336;28;20159;-79
2021/07/13 08:08:21;;;;;;;64.63;36.70;;;22.40;99.90;;;;;;5054499;28;20205;-79
2021/07/13 08:10:46;;;;;;;72.10;38.33;;;22.30;99.90;;;;;;5061540;28;20189;-79
2021/07/13 08:13:12;;;;;;;78.97;42.33;;;22.40;99.90;;;;;;5057718;28;20507;-83
2021/07/13 08:15:38;;;;;;;78.30;43.77;;;22.40;99.90;;;;;;5066462;28;20237;-82
2021/07/13 08:18:03;;;;;;;81.33;43.20;;;22.30;99.90;;;;;;5057710;28;20184;-81
2021/07/13 08:20:29;;;;;;;100.57;47.43;;;22.20;99.90;;;;;;5061192;28;20175;-79
2021/07/13 08:22:54;;;;;;;99.97;46.63;;;22.20;99.90;;;;;;5054503;28;20251;-80
2021/07/13 08:25:21;;;;;;;89.27;44.60;;;22.00;99.90;;;;;;5061333;28;20509;-80
2021/07/13 08:27:47;;;;;;;100.70;47.17;;;22.00;99.90;;;;;;5059193;28;20691;-80
2021/07/13 08:30:14;;;;;;;103.40;47.17;;;22.10;99.90;;;;;;5058930;28;20300;-80
2021/07/13 08:32:40;;;;;;;97.50;45.43;;;22.00;99.90;;;;;;5059202;28;20167;-80
2021/07/13 08:35:07;;;;;;;105.80;49.23;;;22.00;99.90;;;;;;5058240;28;20180;-80
2021/07/13 08:37:33;;;;;;;102.87;47.37;;;22.00;99.90;;;;;;5065208;28;20270;-79
2021/07/13 08:40:08;;;;;;;96.50;46.53;;;22.10;99.90;;;;;;5060778;28;20170;-80
2021/07/13 08:42:39;;;;;;;96.77;47.47;;;22.30;99.90;;;;;;5072283;28;20167;-80
2021/07/13 08:45:13;;;;;;;95.33;48.60;;;22.40;99.90;;;;;;5067350;28;20187;-79
2021/07/13 08:47:40;;;;;;;94.40;47.10;;;22.50;99.90;;;;;;5054009;28;20210;-80
2021/07/13 08:50:07;;;;;;;95.77;48.07;;;22.60;99.90;;;;;;5059213;28;20169;-80
2021/07/13 08:52:34;;;;;;;91.30;47.27;;;22.60;99.90;;;;;;5057305;28;20206;-80
2021/07/13 08:55:01;;;;;;;95.20;47.83;;;22.70;99.90;;;;;;5062931;28;20194;-86
2021/07/13 08:57:26;;;;;;;97.03;47.80;;;22.70;99.90;;;;;;5058638;28;20179;-81
2021/07/13 08:59:52;;;;;;;92.67;45.60;;;22.70;99.90;;;;;;5060923;28;20177;-81
2021/07/13 09:02:17;;;;;;;85.53;45.03;;;22.70;99.90;;;;;;5072504;28;20193;-81
2021/07/13 09:04:43;;;;;;;93.63;46.63;;;22.80;99.90;;;;;;5063662;28;20625;-82
2021/07/13 09:07:09;;;;;;;81.97;43.73;;;22.80;99.90;;;;;;5070163;28;20207;-81
2021/07/13 09:09:40;;;;;;;82.53;44.63;;;22.70;99.90;;;;;;5064138;28;20183;-83
2021/07/13 09:12:18;;;;;;;89.03;46.20;;;22.70;99.90;;;;;;5063218;28;20188;-82
2021/07/13 09:15:02;;;;;;;84.53;45.97;;;22.60;99.90;;;;;;5054093;28;20651;-80
2021/07/13 09:17:33;;;;;;;83.10;45.43;;;22.70;99.90;;;;;;5066651;28;20166;-80
2021/07/13 09:19:58;;;;;;;93.37;48.10;;;22.70;99.90;;;;;;5063972;28;20259;-79
2021/07/13 09:22:24;;;;;;;91.00;48.67;;;22.80;99.90;;;;;;5060169;28;20330;-81
2021/07/13 09:24:49;;;;;;;95.17;48.20;;;22.90;99.90;;;;;;5051980;28;20273;-79
2021/07/13 09:27:17;;;;;;;88.43;46.87;;;22.90;99.90;;;;;;5058637;28;20337;-80
2021/07/13 09:29:48;;;;;;;89.00;47.37;;;23.00;99.90;;;;;;5058359;28;20205;-80
2021/07/13 09:32:33;;;;;;;88.60;48.90;;;23.10;99.90;;;;;;5053580;28;20202;-80
2021/07/13 09:35:09;;;;;;;84.07;46.93;;;23.20;99.90;;;;;;5054739;28;20533;-80
2021/07/13 09:37:39;;;;;;;84.53;47.83;;;23.30;99.90;;;;;;5057387;28;20172;-80
2021/07/13 09:40:14;;;;;;;91.27;50.73;;;23.40;99.90;;;;;;5056473;28;20181;-80
2021/07/13 09:42:49;;;;;;;85.97;48.57;;;23.60;99.90;;;;;;5068544;28;20171;-79
2021/07/13 09:45:23;;;;;;;84.10;46.57;;;23.60;99.90;;;;;;5058549;28;21467;-81
2021/07/13 09:47:51;;;;;;;83.20;46.77;;;23.40;99.90;;;;;;5056288;28;20323;-80
2021/07/13 09:50:53;;;;;;;84.63;48.40;;;23.40;99.90;;;;;;5061916;28;20168;-80
2021/07/13 09:53:22;;;;;;;77.53;45.90;;;23.50;99.90;;;;;;5051266;28;20177;-81
2021/07/13 09:55:49;;;;;;;76.73;44.17;;;23.60;99.90;;;;;;5061456;28;20195;-80
2021/07/13 09:58:15;;;;;;;71.67;43.47;;;23.70;99.90;;;;;;5062946;28;20176;-80
2021/07/13 10:00:43;;;;;;;70.27;40.33;;;23.90;99.90;;;;;;5053129;28;20164;-80
2021/07/13 10:03:11;;;;;;;59.63;36.07;;;23.80;99.90;;;;;;5052064;28;20250;-80
2021/07/13 10:05:39;;;;;;;55.47;32.83;;;23.90;99.90;;;;;;5072918;28;20218;-80
2021/07/13 10:08:05;;;;;;;47.23;29.73;;;24.00;99.90;;;;;;5061119;28;20298;-82
2021/07/13 10:10:31;;;;;;;53.93;31.70;;;24.00;99.90;;;;;;5063367;28;20658;-80
2021/07/13 10:12:57;;;;;;;50.60;31.80;;;24.10;99.90;;;;;;5058792;28;20180;-80
2021/07/13 10:15:23;;;;;;;49.27;30.47;;;24.20;99.90;;;;;;5065475;28;20198;-79
2021/07/13 10:17:50;;;;;;;50.27;29.33;;;24.10;99.90;;;;;;5052941;28;20176;-80
2021/07/13 10:20:22;;;;;;;51.00;31.90;;;24.20;99.90;;;;;;5060214;28;20178;-80
2021/07/13 10:22:50;;;;;;;52.33;30.17;;;24.20;99.90;;;;;;5071106;28;20202;-80
2021/07/13 10:25:16;;;;;;;48.50;29.53;;;24.30;99.90;;;;;;5056005;28;20540;-80
2021/07/13 10:27:49;;;;;;;49.50;31.17;;;24.20;99.90;;;;;;5059818;28;20230;-80
2021/07/13 10:30:17;;;;;;;44.50;28.70;;;24.20;99.90;;;;;;5063847;28;20198;-80
2021/07/13 10:32:44;;;;;;;47.97;28.77;;;24.10;99.90;;;;;;5064460;28;20169;-80
2021/07/13 10:35:28;;;;;;;49.03;30.17;;;24.20;99.90;;;;;;5064964;28;20252;-80
2021/07/13 10:37:56;;;;;;;45.97;29.73;;;24.30;99.90;;;;;;5057916;28;20179;-81
2021/07/13 10:40:24;;;;;;;43.27;28.27;;;24.40;99.90;;;;;;5057175;28;20195;-80
2021/07/13 10:42:53;;;;;;;45.97;28.90;;;24.60;99.90;;;;;;5060998;28;20262;-80
2021/07/13 10:45:29;;;;;;;43.20;28.67;;;24.60;99.90;;;;;;5062988;28;20171;-80
2021/07/13 10:47:56;;;;;;;48.97;30.10;;;24.60;99.90;;;;;;5060520;28;20202;-80
2021/07/13 10:50:22;;;;;;;41.20;28.63;;;24.70;99.90;;;;;;5055431;28;20171;-80
2021/07/13 10:52:57;;;;;;;42.57;27.90;;;24.60;99.90;;;;;;5061586;28;20185;-81
2021/07/13 10:55:31;;;;;;;40.43;28.27;;;24.60;99.90;;;;;;5058490;28;20167;-81
2021/07/13 10:58:10;;;;;;;42.23;28.30;;;24.60;99.90;;;;;;5053992;28;20549;-80
2021/07/13 11:00:48;;;;;;;37.70;26.50;;;24.60;99.90;;;;;;5067001;28;20591;-80
2021/07/13 11:03:32;;;;;;;38.27;28.67;;;24.60;99.90;;;;;;5068295;28;20266;-80
2021/07/13 11:06:17;;;;;;;40.40;28.00;;;24.60;99.90;;;;;;5060096;28;20647;-80
2021/07/13 11:08:47;;;;;;;43.40;29.87;;;24.50;99.90;;;;;;5062393;28;20676;-81
2021/07/13 11:11:18;;;;;;;45.13;29.17;;;24.50;99.90;;;;;;5067237;28;20225;-80
2021/07/13 11:13:46;;;;;;;39.73;28.60;;;24.60;99.90;;;;;;5064966;28;20667;-80
2021/07/13 11:16:14;;;;;;;41.47;30.27;;;24.60;99.90;;;;;;5066874;28;20307;-80
2021/07/13 11:18:41;;;;;;;41.73;28.93;;;24.60;99.90;;;;;;5071280;28;20210;-80
2021/07/13 11:21:30;;;;;;;39.77;28.57;;;24.70;99.90;;;;;;5058315;28;20179;-80
2021/07/13 11:23:58;;;;;;;39.43;27.77;;;24.70;99.90;;;;;;5063874;28;20234;-80
2021/07/13 11:26:26;;;;;;;39.07;28.67;;;24.60;99.90;;;;;;5069318;28;20251;-79
2021/07/13 11:28:53;;;;;;;41.80;29.50;;;24.70;99.90;;;;;;5059864;28;20222;-80
2021/07/13 11:31:27;;;;;;;39.33;30.30;;;24.70;99.90;;;;;;5070138;28;20200;-81
2021/07/13 11:33:53;;;;;;;39.77;30.33;;;24.80;99.90;;;;;;5071536;28;20217;-80
2021/07/13 11:36:42;;;;;;;40.50;30.47;;;24.90;99.90;;;;;;5056998;28;20255;-80
2021/07/13 11:39:13;;;;;;;41.60;29.60;;;24.80;99.90;;;;;;5070330;28;20634;-80
2021/07/13 11:41:40;;;;;;;39.30;29.13;;;24.80;99.90;;;;;;5067178;28;20243;-80
2021/07/13 11:44:08;;;;;;;41.20;30.33;;;24.80;99.90;;;;;;5058949;28;20770;-80
2021/07/13 11:46:36;;;;;;;41.17;30.43;;;24.80;99.90;;;;;;5054244;28;20632;-80
2021/07/13 11:49:03;;;;;;;41.13;30.47;;;24.90;99.90;;;;;;5068959;28;20174;-80
2021/07/13 11:51:34;;;;;;;39.83;29.70;;;25.10;99.90;;;;;;5056038;28;20229;-80
2021/07/13 11:54:04;;;;;;;40.20;30.43;;;25.00;99.90;;;;;;5064792;28;20658;-80
2021/07/13 11:56:31;;;;;;;42.50;31.40;;;25.00;99.90;;;;;;5060542;28;20180;-80
2021/07/13 11:58:59;;;;;;;41.73;31.30;;;24.80;99.90;;;;;;5059712;28;20184;-80
2021/07/13 12:01:29;;;;;;;45.70;32.50;;;24.80;99.90;;;;;;5055298;28;20172;-80
2021/07/13 12:04:00;;;;;;;43.43;32.87;;;24.80;99.90;;;;;;5053725;28;20203;-79
2021/07/13 12:06:26;;;;;;;44.50;31.87;;;24.70;99.90;;;;;;5061766;28;20162;-79
2021/07/13 12:08:54;;;;;;;38.40;26.63;;;24.40;99.90;;;;;;5061433;28;20215;-80
2021/07/13 12:11:32;;;;;;;27.60;21.53;;;23.70;99.90;;;;;;5054488;28;20701;-80
2021/07/13 12:14:02;;;;;;;31.03;21.73;;;23.00;99.90;;;;;;5068393;28;20654;-80
2021/07/13 12:16:31;;;;;;;32.67;23.47;;;22.70;99.90;;;;;;5055185;28;20168;-80
2021/07/13 12:19:03;;;;;;;37.90;27.33;;;22.40;99.90;;;;;;5060050;28;20178;-80
2021/07/13 12:21:31;;;;;;;70.70;33.60;;;22.20;99.90;;;;;;5068793;28;20175;-79
2021/07/13 12:23:58;;;;;;;75.40;37.97;;;21.50;99.90;;;;;;5053742;28;20214;-79
2021/07/13 12:26:33;;;;;;;86.63;40.20;;;21.20;99.90;;;;;;5070166;28;20194;-79
2021/07/13 12:29:12;;;;;;;87.20;41.47;;;21.20;99.90;;;;;;5088606;28;20217;-79
2021/07/13 12:32:00;;;;;;;135.33;45.50;;;21.10;99.90;;;;;;5095198;28;20265;-79